Bandar Lengeh, Iran
Current Conditions -  °F | °C
As of 11:00 AM on Monday 20 Oct 2014 (Local Time) from OIBL Reporting Station
Clear Clear  
Wind Chill: 90°   Ceiling: Unl
Heat Index: 92°   Visibility: 6mi
Dew Point: 66°   Wind: 9mph
Humidity: 46%   Direction: 110°ESE
Pressure: 29.85"   Gusts: NA
Location:  26.56°N, 54.88°E
Report Text: OIBL 200800Z 11008KT CAVOK 32/19 Q1011
Loading
Personal Weather Stations






























Interactive Weather Map
Tropical Storm Tracking
New forecast layout! Learn more

10-Day Weather Forecast

Advertisements
Track Severe Weather on mobile